createdAt,value
2017-07-09T00:00:51.267Z,18.7
2017-07-09T00:01:52.530Z,18.72
2017-07-09T00:02:53.790Z,18.64
2017-07-09T00:03:55.064Z,18.67
2017-07-09T00:04:56.293Z,18.67
2017-07-09T00:05:57.573Z,18.67
2017-07-09T00:06:58.797Z,18.62
2017-07-09T00:08:00.076Z,18.62
2017-07-09T00:09:01.318Z,18.59
2017-07-09T00:10:02.559Z,18.62
2017-07-09T00:11:03.816Z,18.62
2017-07-09T00:12:05.063Z,18.65
2017-07-09T00:13:06.326Z,18.52
2017-07-09T00:14:07.574Z,18.57
2017-07-09T00:15:08.874Z,18.47
2017-07-09T00:16:10.144Z,18.43
2017-07-09T00:17:11.443Z,18.43
2017-07-09T00:18:12.686Z,18.44
2017-07-09T00:19:13.922Z,18.43
2017-07-09T00:20:15.183Z,18.43
2017-07-09T00:21:16.422Z,18.49
2017-07-09T00:22:17.750Z,18.44
2017-07-09T00:23:18.976Z,18.4
2017-07-09T00:24:20.235Z,18.47
2017-07-09T00:25:21.496Z,18.47
2017-07-09T00:26:22.741Z,18.44
2017-07-09T00:27:23.994Z,18.43
2017-07-09T00:28:25.394Z,18.33
2017-07-09T00:29:26.683Z,18.37
2017-07-09T00:30:27.908Z,18.37
2017-07-09T00:31:29.144Z,18.44
2017-07-09T00:32:30.383Z,18.42
2017-07-09T00:33:31.618Z,18.4
2017-07-09T00:34:32.881Z,18.37
2017-07-09T00:35:34.158Z,18.43
2017-07-09T00:36:35.377Z,18.4
2017-07-09T00:37:36.626Z,18.37
2017-07-09T00:38:37.874Z,18.39
2017-07-09T00:39:39.148Z,18.36
2017-07-09T00:40:40.385Z,18.33
2017-07-09T00:41:41.672Z,18.27
2017-07-09T00:42:42.917Z,18.27
2017-07-09T00:43:44.167Z,18.28
2017-07-09T00:44:45.420Z,18.22
2017-07-09T00:45:46.697Z,18.19
2017-07-09T00:46:47.927Z,18.25
2017-07-09T00:47:49.228Z,18.18
2017-07-09T00:48:50.500Z,18.19
2017-07-09T00:49:51.719Z,18.21
2017-07-09T00:50:52.960Z,18.15
2017-07-09T00:51:54.228Z,18.13
2017-07-09T00:52:55.502Z,18.12
2017-07-09T00:53:56.763Z,18.15
2017-07-09T00:54:58.104Z,18.07
2017-07-09T00:55:59.482Z,18.13
2017-07-09T00:57:00.723Z,18.06
2017-07-09T00:58:01.975Z,17.95
2017-07-09T00:59:03.285Z,17.95
2017-07-09T01:00:04.496Z,17.88
2017-07-09T01:01:05.743Z,17.87
2017-07-09T01:02:06.993Z,17.82
2017-07-09T01:03:08.234Z,18
2017-07-09T01:04:09.611Z,17.97
2017-07-09T01:05:10.768Z,17.87
2017-07-09T01:06:12.031Z,17.95
2017-07-09T01:07:13.325Z,17.87
2017-07-09T01:08:14.581Z,17.89
2017-07-09T01:09:15.839Z,17.81
2017-07-09T01:10:17.084Z,17.81
2017-07-09T01:11:18.334Z,17.84
2017-07-09T01:12:19.581Z,17.76
2017-07-09T01:13:20.942Z,17.82
2017-07-09T01:14:22.165Z,17.78
2017-07-09T01:15:23.410Z,17.76
2017-07-09T01:16:24.647Z,17.82
2017-07-09T01:17:26.034Z,17.74
2017-07-09T01:18:27.290Z,17.87
2017-07-09T01:19:28.525Z,17.76
2017-07-09T01:20:29.776Z,17.82
2017-07-09T01:21:31.047Z,17.71
2017-07-09T01:22:32.292Z,17.79
2017-07-09T01:23:33.533Z,17.73
2017-07-09T01:24:34.793Z,17.73
2017-07-09T01:25:36.044Z,17.74
2017-07-09T01:26:37.299Z,17.67
2017-07-09T01:27:38.553Z,17.62
2017-07-09T01:28:39.794Z,17.67
2017-07-09T01:29:41.037Z,17.64
2017-07-09T01:30:42.278Z,17.63
2017-07-09T01:31:43.516Z,17.59
2017-07-09T01:32:44.784Z,17.55
2017-07-09T01:33:46.037Z,17.62
2017-07-09T01:34:47.448Z,17.62
2017-07-09T01:35:48.701Z,17.64
2017-07-09T01:36:50.035Z,17.55
2017-07-09T01:37:51.309Z,17.54
2017-07-09T01:38:52.597Z,17.55
2017-07-09T01:39:53.835Z,17.57
2017-07-09T01:40:55.086Z,17.53
2017-07-09T01:41:56.345Z,17.59
2017-07-09T01:42:57.604Z,17.63
2017-07-09T01:43:58.946Z,17.55
2017-07-09T01:45:00.180Z,17.57
2017-07-09T01:46:01.531Z,17.69
2017-07-09T01:47:02.794Z,17.64
2017-07-09T01:48:04.042Z,17.66
2017-07-09T01:49:05.397Z,17.59
2017-07-09T01:50:06.630Z,17.66
2017-07-09T01:51:07.880Z,17.7
2017-07-09T01:52:09.121Z,17.76
2017-07-09T01:53:10.374Z,17.73
2017-07-09T01:54:11.628Z,17.66
2017-07-09T01:55:12.995Z,17.69
2017-07-09T01:56:14.260Z,17.7
2017-07-09T01:57:15.560Z,17.67
2017-07-09T01:58:16.809Z,17.7
2017-07-09T01:59:18.030Z,17.59
2017-07-09T02:00:19.375Z,17.57
2017-07-09T02:01:20.684Z,17.63
2017-07-09T02:02:21.937Z,17.59
2017-07-09T02:03:23.192Z,17.59
2017-07-09T02:04:24.467Z,17.57
2017-07-09T02:05:25.743Z,17.59
2017-07-09T02:06:27.078Z,17.51
2017-07-09T02:07:28.344Z,17.67
2017-07-09T02:08:29.648Z,17.55
2017-07-09T02:09:30.893Z,17.54
2017-07-09T02:10:32.157Z,17.55
2017-07-09T02:11:33.455Z,17.55
2017-07-09T02:12:34.722Z,17.53
2017-07-09T02:13:36.013Z,17.54
2017-07-09T02:14:37.338Z,17.53
2017-07-09T02:15:38.702Z,17.57
2017-07-09T02:16:39.942Z,17.54
2017-07-09T02:17:41.232Z,17.63
2017-07-09T02:18:42.470Z,17.69
2017-07-09T02:19:43.761Z,17.54
2017-07-09T02:20:45.048Z,17.63
2017-07-09T02:21:46.287Z,17.62
2017-07-09T02:22:47.530Z,17.59
2017-07-09T02:23:48.771Z,17.54
2017-07-09T02:24:50.016Z,17.55
2017-07-09T02:25:51.375Z,17.48
2017-07-09T02:26:52.809Z,17.51
2017-07-09T02:27:53.936Z,17.5
2017-07-09T02:28:55.182Z,17.47
2017-07-09T02:29:56.419Z,17.41
2017-07-09T02:30:57.738Z,17.43
2017-07-09T02:31:59.024Z,17.4
2017-07-09T02:33:00.262Z,17.33
2017-07-09T02:34:01.577Z,17.36
2017-07-09T02:35:02.820Z,17.33
2017-07-09T02:36:04.051Z,17.4
2017-07-09T02:37:05.306Z,17.32
2017-07-09T02:38:06.557Z,17.41
2017-07-09T02:39:07.813Z,17.35
2017-07-09T02:40:09.053Z,17.33
2017-07-09T02:41:10.300Z,17.36
2017-07-09T02:42:11.572Z,17.36
2017-07-09T02:43:12.807Z,17.38
2017-07-09T02:44:14.050Z,17.36
2017-07-09T02:45:15.296Z,17.25
2017-07-09T02:46:16.602Z,17.26
2017-07-09T02:47:17.847Z,17.25
2017-07-09T02:48:19.076Z,17.26
2017-07-09T02:49:20.353Z,17.22
2017-07-09T02:50:21.583Z,17.23
2017-07-09T02:51:22.874Z,17.25
2017-07-09T02:52:24.125Z,17.2
2017-07-09T02:53:25.381Z,17.15
2017-07-09T02:54:26.642Z,17.13
2017-07-09T02:55:27.988Z,17.04
2017-07-09T02:56:29.248Z,17.08
2017-07-09T02:57:30.495Z,17.03
2017-07-09T02:58:31.766Z,17.13
2017-07-09T02:59:33.012Z,17.07
2017-07-09T03:00:34.255Z,17.13
2017-07-09T03:01:35.503Z,17.1
2017-07-09T03:02:36.742Z,17.1
2017-07-09T03:03:37.983Z,17.04
2017-07-09T03:04:39.232Z,17.04
2017-07-09T03:05:40.481Z,16.93
2017-07-09T03:06:41.738Z,16.89
2017-07-09T03:07:42.981Z,16.89
2017-07-09T03:08:44.239Z,16.8
2017-07-09T03:09:45.535Z,16.73
2017-07-09T03:10:46.776Z,16.74
2017-07-09T03:11:48.075Z,16.71
2017-07-09T03:12:49.316Z,16.71
2017-07-09T03:13:50.562Z,16.58
2017-07-09T03:14:51.841Z,16.58
2017-07-09T03:15:53.078Z,16.53
2017-07-09T03:16:54.358Z,16.53
2017-07-09T03:17:55.609Z,16.5
2017-07-09T03:18:56.857Z,16.45
2017-07-09T03:19:58.098Z,16.44
2017-07-09T03:20:59.356Z,16.4
2017-07-09T03:22:00.616Z,16.41
2017-07-09T03:23:01.946Z,16.37
2017-07-09T03:24:03.202Z,16.45
2017-07-09T03:25:04.449Z,16.52
2017-07-09T03:26:05.723Z,16.58
2017-07-09T03:27:06.971Z,16.59
2017-07-09T03:28:08.221Z,16.56
2017-07-09T03:29:09.468Z,16.55
2017-07-09T03:30:10.898Z,16.63
2017-07-09T03:31:12.029Z,16.6
2017-07-09T03:32:13.286Z,16.68
2017-07-09T03:33:14.523Z,16.68
2017-07-09T03:34:15.762Z,16.73
2017-07-09T03:35:17.012Z,16.65
2017-07-09T03:36:18.253Z,16.78
2017-07-09T03:37:19.607Z,16.73
2017-07-09T03:38:20.868Z,16.74
2017-07-09T03:39:22.115Z,16.8
2017-07-09T03:40:23.378Z,16.74
2017-07-09T03:41:24.628Z,16.74
2017-07-09T03:42:25.886Z,16.77
2017-07-09T03:43:27.148Z,16.86
2017-07-09T03:44:28.406Z,16.74
2017-07-09T03:45:29.693Z,16.8
2017-07-09T03:46:30.984Z,16.73
2017-07-09T03:47:32.245Z,16.74
2017-07-09T03:48:33.491Z,16.81
2017-07-09T03:49:34.845Z,16.8
2017-07-09T03:50:36.107Z,16.85
2017-07-09T03:51:37.415Z,16.85
2017-07-09T03:52:38.676Z,16.88
2017-07-09T03:53:39.937Z,16.86
2017-07-09T03:54:41.194Z,16.81
2017-07-09T03:55:42.449Z,16.85
2017-07-09T03:56:43.684Z,16.89
2017-07-09T03:57:44.939Z,16.8
2017-07-09T03:58:46.184Z,16.88
2017-07-09T03:59:47.481Z,16.77
2017-07-09T04:00:48.730Z,16.86
2017-07-09T04:01:49.973Z,16.81
2017-07-09T04:02:51.219Z,16.83
2017-07-09T04:03:52.466Z,16.83
2017-07-09T04:04:53.720Z,16.86
2017-07-09T04:05:54.959Z,16.74
2017-07-09T04:06:56.325Z,16.81
2017-07-09T04:07:57.753Z,16.85
2017-07-09T04:08:59.004Z,16.89
2017-07-09T04:10:00.250Z,16.88
2017-07-09T04:11:01.550Z,16.93
2017-07-09T04:12:02.917Z,16.89
2017-07-09T04:13:04.191Z,16.95
2017-07-09T04:14:05.469Z,16.99
2017-07-09T04:15:06.713Z,16.99
2017-07-09T04:16:07.982Z,16.95
2017-07-09T04:17:09.268Z,16.9
2017-07-09T04:18:10.510Z,16.95
2017-07-09T04:19:11.896Z,16.93
2017-07-09T04:20:13.152Z,16.93
2017-07-09T04:21:14.402Z,16.93
2017-07-09T04:22:15.670Z,16.95
2017-07-09T04:23:16.961Z,16.88
2017-07-09T04:24:18.302Z,16.9
2017-07-09T04:25:19.540Z,16.92
2017-07-09T04:26:20.795Z,17.03
2017-07-09T04:27:22.038Z,17.03
2017-07-09T04:28:23.327Z,17.08
2017-07-09T04:29:24.545Z,17.08
2017-07-09T04:30:25.810Z,17.23
2017-07-09T04:31:27.043Z,17.23
2017-07-09T04:32:28.328Z,17.41
2017-07-09T04:33:29.569Z,17.41
2017-07-09T04:34:30.833Z,17.51
2017-07-09T04:35:32.094Z,17.54
2017-07-09T04:36:33.370Z,17.55
2017-07-09T04:37:34.611Z,17.53
2017-07-09T04:38:35.858Z,17.63
2017-07-09T04:39:37.100Z,17.63
2017-07-09T04:40:38.339Z,17.59
2017-07-09T04:41:39.691Z,17.62
2017-07-09T04:42:41.027Z,17.62
2017-07-09T04:43:42.282Z,17.66
2017-07-09T04:44:43.533Z,17.59
2017-07-09T04:45:44.791Z,17.48
2017-07-09T04:46:46.078Z,17.36
2017-07-09T04:47:47.288Z,17.46
2017-07-09T04:48:48.539Z,17.51
2017-07-09T04:49:49.821Z,17.51
2017-07-09T04:50:51.070Z,17.55
2017-07-09T04:51:52.325Z,17.55
2017-07-09T04:52:53.586Z,17.48
2017-07-09T04:53:54.852Z,17.54
2017-07-09T04:54:56.084Z,17.63
2017-07-09T04:55:57.333Z,17.54
2017-07-09T04:56:58.641Z,17.62
2017-07-09T04:57:59.867Z,17.48
2017-07-09T04:59:01.138Z,17.57
2017-07-09T05:00:02.384Z,17.57
2017-07-09T05:01:03.695Z,17.62
2017-07-09T05:02:04.982Z,17.55
2017-07-09T05:03:06.198Z,17.55
2017-07-09T05:04:07.451Z,17.5
2017-07-09T05:05:08.698Z,17.55
2017-07-09T05:06:09.941Z,17.59
2017-07-09T05:07:11.188Z,17.62
2017-07-09T05:08:12.486Z,17.59
2017-07-09T05:09:13.808Z,17.67
2017-07-09T05:10:15.058Z,17.71
2017-07-09T05:11:16.307Z,17.73
2017-07-09T05:12:17.550Z,17.73
2017-07-09T05:13:18.870Z,17.76
2017-07-09T05:14:20.132Z,17.94
2017-07-09T05:15:21.421Z,17.95
2017-07-09T05:16:22.741Z,18.1
2017-07-09T05:17:24.009Z,18.15
2017-07-09T05:18:25.382Z,18.24
2017-07-09T05:19:26.601Z,18.39
2017-07-09T05:20:27.850Z,18.59
2017-07-09T05:21:29.121Z,18.73
2017-07-09T05:22:30.378Z,18.99
2017-07-09T05:23:31.636Z,19.31
2017-07-09T05:24:32.894Z,19.75
2017-07-09T05:25:34.143Z,20.16
2017-07-09T05:26:35.399Z,20.47
2017-07-09T05:27:36.812Z,20.64
2017-07-09T05:28:37.978Z,20.61
2017-07-09T05:29:39.243Z,20.62
2017-07-09T05:30:40.494Z,20.42
2017-07-09T05:31:41.738Z,20.35
2017-07-09T05:32:43.040Z,20.28
2017-07-09T05:33:44.289Z,20.23
2017-07-09T05:34:45.575Z,20.13
2017-07-09T05:35:46.786Z,20.09
2017-07-09T05:36:48.084Z,20.09
2017-07-09T05:37:49.504Z,20.03
2017-07-09T05:38:50.632Z,19.93
2017-07-09T05:39:51.884Z,20.02
2017-07-09T05:40:53.131Z,19.94
2017-07-09T05:41:54.430Z,19.98
2017-07-09T05:42:55.619Z,19.98
2017-07-09T05:43:56.868Z,19.97
2017-07-09T05:44:58.217Z,20.03
2017-07-09T05:45:59.468Z,20.13
2017-07-09T05:47:00.734Z,20.58
2017-07-09T05:48:01.952Z,21.01
2017-07-09T05:49:03.200Z,21.44
2017-07-09T05:50:04.463Z,21.74
2017-07-09T05:51:05.729Z,21.83
2017-07-09T05:52:07.102Z,22.19
2017-07-09T05:53:08.349Z,22.44
2017-07-09T05:54:09.630Z,22.99
2017-07-09T05:55:10.927Z,23.15
2017-07-09T05:56:12.160Z,23.02
2017-07-09T05:57:13.437Z,23.02
2017-07-09T05:58:14.661Z,22.89
2017-07-09T05:59:15.908Z,22.84
2017-07-09T06:00:17.212Z,22.71
2017-07-09T06:01:18.381Z,22.59
2017-07-09T06:02:19.635Z,22.5
2017-07-09T06:03:20.945Z,22.56
2017-07-09T06:04:22.220Z,22.52
2017-07-09T06:05:23.492Z,22.41
2017-07-09T06:06:24.741Z,22.16
2017-07-09T06:07:25.988Z,21.74
2017-07-09T06:08:27.245Z,21.69
2017-07-09T06:09:28.606Z,21.46
2017-07-09T06:10:29.857Z,21.26
2017-07-09T06:11:31.132Z,21.17
2017-07-09T06:12:32.366Z,21.13
2017-07-09T06:13:33.604Z,21.08
2017-07-09T06:14:34.871Z,21.16
2017-07-09T06:15:36.102Z,21.26
2017-07-09T06:16:37.408Z,21.34
2017-07-09T06:17:38.711Z,21.32
2017-07-09T06:18:39.984Z,21.38
2017-07-09T06:19:41.223Z,21.46
2017-07-09T06:20:42.455Z,21.3
2017-07-09T06:21:43.716Z,21.38
2017-07-09T06:22:45.019Z,21.36
2017-07-09T06:23:46.244Z,21.08
2017-07-09T06:24:47.525Z,21.05
2017-07-09T06:25:48.780Z,20.93
2017-07-09T06:26:50.077Z,20.77
2017-07-09T06:27:51.332Z,20.59
2017-07-09T06:28:52.571Z,20.39
2017-07-09T06:29:53.826Z,19.95
2017-07-09T06:30:55.085Z,19.9
2017-07-09T06:31:56.333Z,19.86
2017-07-09T06:32:57.587Z,19.86
2017-07-09T06:33:58.845Z,19.91
2017-07-09T06:35:00.107Z,19.87
2017-07-09T06:36:01.401Z,19.78
2017-07-09T06:37:02.692Z,19.86
2017-07-09T06:38:03.930Z,19.79
2017-07-09T06:39:05.277Z,19.87
2017-07-09T06:40:06.530Z,20
2017-07-09T06:41:07.779Z,20.12
2017-07-09T06:42:09.110Z,20.31
2017-07-09T06:43:10.279Z,20.61
2017-07-09T06:44:11.525Z,20.58
2017-07-09T06:45:12.778Z,20.77
2017-07-09T06:46:14.057Z,20.95
2017-07-09T06:47:15.452Z,21.05
2017-07-09T06:48:16.691Z,21.2
2017-07-09T06:49:17.938Z,21.32
2017-07-09T06:50:19.188Z,21.45
2017-07-09T06:51:20.448Z,21.72
2017-07-09T06:52:21.765Z,21.92
2017-07-09T06:53:23.006Z,22.1
2017-07-09T06:54:24.267Z,22.32
2017-07-09T06:55:25.525Z,22.56
2017-07-09T06:56:26.807Z,22.96
2017-07-09T06:57:28.038Z,23.5
2017-07-09T06:58:29.349Z,23.83
2017-07-09T06:59:30.648Z,23.98
2017-07-09T07:00:31.923Z,23.94
2017-07-09T07:01:33.173Z,23.85
2017-07-09T07:02:34.418Z,23.92
2017-07-09T07:03:35.690Z,23.94
2017-07-09T07:04:36.954Z,24.05
2017-07-09T07:05:38.227Z,23.72
2017-07-09T07:06:39.499Z,23.97
2017-07-09T07:07:40.729Z,24.07
2017-07-09T07:08:41.994Z,24.44
2017-07-09T07:09:43.243Z,24.56
2017-07-09T07:10:44.489Z,24.69
2017-07-09T07:11:45.740Z,24.82
2017-07-09T07:12:47.108Z,24.88
2017-07-09T07:13:48.427Z,24.87
2017-07-09T07:14:49.692Z,25
2017-07-09T07:15:50.945Z,25.25
2017-07-09T07:16:52.238Z,25.39
2017-07-09T07:17:53.538Z,25.59
2017-07-09T07:18:54.967Z,25.83
2017-07-09T07:19:56.095Z,25.8
2017-07-09T07:20:57.350Z,25.87
2017-07-09T07:21:58.598Z,26.18
2017-07-09T07:22:59.849Z,26.36
2017-07-09T07:24:01.111Z,26.58
2017-07-09T07:25:02.382Z,26.91
2017-07-09T07:26:03.728Z,27.2
2017-07-09T07:27:04.975Z,27.59
2017-07-09T07:28:06.267Z,28.25
2017-07-09T07:29:07.648Z,28.81
2017-07-09T07:30:08.910Z,29.41
2017-07-09T07:31:10.202Z,29.81
2017-07-09T07:32:11.454Z,30.07
2017-07-09T07:33:12.710Z,30.21
2017-07-09T07:34:14.039Z,29.9
2017-07-09T07:35:15.347Z,30.3
2017-07-09T07:36:16.639Z,30.65
2017-07-09T07:37:17.958Z,30.99
2017-07-09T07:38:19.205Z,31.46
2017-07-09T07:39:20.530Z,31.76
2017-07-09T07:40:21.878Z,31.98
2017-07-09T07:41:23.254Z,32.15
2017-07-09T07:42:24.514Z,32.4
2017-07-09T07:43:25.789Z,32.43
2017-07-09T07:44:27.019Z,32.39
2017-07-09T07:45:28.275Z,32.44
2017-07-09T07:46:29.654Z,32.3
2017-07-09T07:47:30.921Z,31.96
2017-07-09T07:48:32.156Z,31.88
2017-07-09T07:49:33.456Z,31.82
2017-07-09T07:50:34.718Z,32.1
2017-07-09T07:51:36.087Z,32.33
2017-07-09T07:52:37.341Z,32.7
2017-07-09T07:53:38.585Z,33.1
2017-07-09T07:54:39.883Z,33.31
2017-07-09T07:55:41.113Z,33.57
2017-07-09T07:56:42.367Z,33.49
2017-07-09T07:57:43.739Z,33.55
2017-07-09T07:58:45.023Z,33.51
2017-07-09T07:59:46.300Z,33.17
2017-07-09T08:00:47.584Z,32.67
2017-07-09T08:01:48.851Z,32.48
2017-07-09T08:02:50.114Z,32.44
2017-07-09T08:03:51.371Z,31.99
2017-07-09T08:04:52.632Z,31.79
2017-07-09T08:05:53.949Z,31.62
2017-07-09T08:06:55.200Z,31.57
2017-07-09T08:07:56.451Z,31.67
2017-07-09T08:08:57.706Z,31.99
2017-07-09T08:09:58.967Z,32.43
2017-07-09T08:11:00.225Z,33.11
2017-07-09T08:12:01.600Z,33.82
2017-07-09T08:13:02.851Z,34.56
2017-07-09T08:14:04.114Z,34.7
2017-07-09T08:15:05.372Z,34.57
2017-07-09T08:16:06.628Z,34.39
2017-07-09T08:17:07.888Z,34.51
2017-07-09T08:18:09.303Z,34.42
2017-07-09T08:19:10.575Z,34.29
2017-07-09T08:20:11.898Z,34.14
2017-07-09T08:21:13.159Z,33.64
2017-07-09T08:22:14.418Z,33.41
2017-07-09T08:23:15.723Z,32.8
2017-07-09T08:24:16.996Z,32.2
2017-07-09T08:25:18.255Z,31.8
2017-07-09T08:26:19.522Z,31.28
2017-07-09T08:27:20.771Z,30.81
2017-07-09T08:28:22.128Z,30.59
2017-07-09T08:29:23.452Z,30.24
2017-07-09T08:30:24.707Z,29.78
2017-07-09T08:31:25.958Z,29.81
2017-07-09T08:32:27.214Z,29.72
2017-07-09T08:33:28.470Z,29.75
2017-07-09T08:34:29.764Z,29.62
2017-07-09T08:35:31.024Z,29.31
2017-07-09T08:36:32.283Z,29.2
2017-07-09T08:37:33.538Z,28.73
2017-07-09T08:38:34.811Z,28.58
2017-07-09T08:39:36.128Z,28.78
2017-07-09T08:40:37.539Z,29.22
2017-07-09T08:41:38.665Z,29.26
2017-07-09T08:42:40.015Z,29.25
2017-07-09T08:43:41.240Z,29.31
2017-07-09T08:44:42.488Z,29.45
2017-07-09T08:45:43.796Z,29.52
2017-07-09T08:46:45.084Z,29.45
2017-07-09T08:47:46.345Z,29.55
2017-07-09T08:48:47.600Z,29.47
2017-07-09T08:49:48.852Z,29.33
2017-07-09T08:50:50.133Z,29.34
2017-07-09T08:51:51.409Z,29.26
2017-07-09T08:52:52.668Z,29.2
2017-07-09T08:53:53.967Z,29.22
2017-07-09T08:54:55.238Z,29.23
2017-07-09T08:55:56.477Z,29.2
2017-07-09T08:56:57.838Z,29.33
2017-07-09T08:57:59.077Z,29.34
2017-07-09T08:59:00.586Z,29.38
2017-07-09T09:00:01.822Z,29.38
2017-07-09T09:01:03.083Z,29.4
2017-07-09T09:02:04.351Z,29.52
2017-07-09T09:03:05.688Z,29.66
2017-07-09T09:04:07.058Z,29.86
2017-07-09T09:05:08.365Z,30.02
2017-07-09T09:06:09.615Z,30.27
2017-07-09T09:07:10.900Z,30.33
2017-07-09T09:08:12.155Z,30.03
2017-07-09T09:09:13.471Z,30.15
2017-07-09T09:10:14.697Z,30.33
2017-07-09T09:11:15.954Z,30.26
2017-07-09T09:12:17.219Z,30.31
2017-07-09T09:13:18.494Z,30.24
2017-07-09T09:14:19.750Z,30.5
2017-07-09T09:15:21.018Z,31.12
2017-07-09T09:16:22.288Z,31.65
2017-07-09T09:17:23.586Z,32.51
2017-07-09T09:18:24.826Z,33.17
2017-07-09T09:19:26.093Z,34.09
2017-07-09T09:20:27.355Z,35.13
2017-07-09T09:21:28.643Z,35.18
2017-07-09T09:22:29.890Z,35.72
2017-07-09T09:23:31.237Z,35.93
2017-07-09T09:24:32.400Z,36.33
2017-07-09T09:25:33.665Z,36.97
2017-07-09T09:26:34.926Z,37.81
2017-07-09T09:27:36.192Z,38.53
2017-07-09T09:28:37.638Z,39.05
2017-07-09T09:29:38.851Z,39.7
2017-07-09T09:30:40.157Z,39.43
2017-07-09T09:31:41.446Z,39.4
2017-07-09T09:32:42.686Z,39.54
2017-07-09T09:33:44.011Z,39.96
2017-07-09T09:34:45.282Z,39.7
2017-07-09T09:35:46.571Z,39.46
2017-07-09T09:36:47.822Z,39.64
2017-07-09T09:37:49.101Z,39.64
2017-07-09T09:38:50.356Z,38.9
2017-07-09T09:39:51.703Z,38.99
2017-07-09T09:40:52.942Z,39.13
2017-07-09T09:41:54.213Z,39.05
2017-07-09T09:42:55.474Z,39.62
2017-07-09T09:43:56.735Z,40.43
2017-07-09T09:44:58.001Z,41.21
2017-07-09T09:45:59.274Z,42.19
2017-07-09T09:47:00.549Z,43.14
2017-07-09T09:48:01.853Z,44.26
2017-07-09T09:49:03.120Z,45.06
2017-07-09T09:50:04.387Z,45.53
2017-07-09T09:51:05.682Z,46.13
2017-07-09T09:52:06.962Z,46.83
2017-07-09T09:53:08.313Z,47.3
2017-07-09T09:54:09.596Z,47.44
2017-07-09T09:55:10.840Z,47.23
2017-07-09T09:56:12.123Z,46.94
2017-07-09T09:57:13.572Z,46.37
2017-07-09T09:58:14.862Z,45.42
2017-07-09T09:59:16.226Z,43.98
2017-07-09T10:00:17.463Z,42.62
2017-07-09T10:01:18.781Z,41.47
2017-07-09T10:02:20.054Z,40.1
2017-07-09T10:03:21.355Z,39.15
2017-07-09T10:04:22.659Z,38.42
2017-07-09T10:05:24.025Z,37.95
2017-07-09T10:06:25.290Z,37.31
2017-07-09T10:07:26.545Z,36.73
2017-07-09T10:08:27.831Z,36.49
2017-07-09T10:09:29.088Z,36.48
2017-07-09T10:10:30.398Z,36.24
2017-07-09T10:11:31.630Z,35.82
2017-07-09T10:12:32.911Z,35.93
2017-07-09T10:13:34.165Z,36.24
2017-07-09T10:14:35.518Z,36.58
2017-07-09T10:15:36.848Z,37.05
2017-07-09T10:16:38.126Z,37.28
2017-07-09T10:17:39.379Z,37.48
2017-07-09T10:18:40.640Z,37.41
2017-07-09T10:19:41.908Z,37.54
2017-07-09T10:20:43.261Z,37.36
2017-07-09T10:21:44.546Z,37.31
2017-07-09T10:22:45.865Z,37.05
2017-07-09T10:23:47.116Z,36.87
2017-07-09T10:24:48.368Z,36.75
2017-07-09T10:25:49.626Z,36.27
2017-07-09T10:26:50.896Z,35.88
2017-07-09T10:27:52.156Z,35.6
2017-07-09T10:28:53.429Z,35.47
2017-07-09T10:29:54.700Z,35.25
2017-07-09T10:30:55.957Z,35.11
2017-07-09T10:31:57.242Z,34.61
2017-07-09T10:32:58.486Z,34.35
2017-07-09T10:33:59.749Z,34.19
2017-07-09T10:35:01.014Z,33.86
2017-07-09T10:36:02.276Z,33.37
2017-07-09T10:37:03.524Z,33.3
2017-07-09T10:38:04.789Z,33.01
2017-07-09T10:39:06.073Z,32.86
2017-07-09T10:40:07.429Z,32.74
2017-07-09T10:41:08.804Z,32.73
2017-07-09T10:42:10.077Z,32.48
2017-07-09T10:43:11.344Z,32.59
2017-07-09T10:44:12.578Z,32.47
2017-07-09T10:45:13.888Z,32.37
2017-07-09T10:46:15.294Z,32.37
2017-07-09T10:47:16.550Z,32.32
2017-07-09T10:48:17.835Z,32.02
2017-07-09T10:49:19.104Z,31.6
2017-07-09T10:50:20.351Z,31.54
2017-07-09T10:51:21.638Z,31.21
2017-07-09T10:52:22.920Z,30.81
2017-07-09T10:53:24.146Z,30.78
2017-07-09T10:54:25.443Z,30.71
2017-07-09T10:55:26.700Z,30.91
2017-07-09T10:56:27.945Z,30.96
2017-07-09T10:57:29.228Z,30.98
2017-07-09T10:58:30.525Z,30.89
2017-07-09T10:59:31.750Z,30.89
2017-07-09T11:00:33.008Z,30.67
2017-07-09T11:01:34.268Z,30.47
2017-07-09T11:02:35.515Z,30.71
2017-07-09T11:03:36.787Z,30.8
2017-07-09T11:04:38.053Z,31.02
2017-07-09T11:05:39.280Z,31.18
2017-07-09T11:06:40.554Z,31.36
2017-07-09T11:07:41.789Z,31.49
2017-07-09T11:08:43.147Z,31.5
2017-07-09T11:09:44.404Z,31.42
2017-07-09T11:10:45.669Z,31.46
2017-07-09T11:11:46.938Z,31.36
2017-07-09T11:12:48.190Z,31.13
2017-07-09T11:13:49.473Z,31.05
2017-07-09T11:14:50.718Z,30.76
2017-07-09T11:15:52.001Z,30.69
2017-07-09T11:16:53.259Z,30.75
2017-07-09T11:17:54.516Z,30.69
2017-07-09T11:18:55.871Z,30.8
2017-07-09T11:19:57.123Z,30.91
2017-07-09T11:20:58.387Z,31.18
2017-07-09T11:21:59.649Z,31.26
2017-07-09T11:23:00.921Z,31.13
2017-07-09T11:24:02.156Z,31.2
2017-07-09T11:25:03.435Z,31.26
2017-07-09T11:26:04.683Z,31.11
2017-07-09T11:27:06.031Z,30.9
2017-07-09T11:28:07.485Z,30.78
2017-07-09T11:29:08.746Z,30.76
2017-07-09T11:30:10.019Z,30.68
2017-07-09T11:31:11.278Z,30.45
2017-07-09T11:32:12.558Z,30.34
2017-07-09T11:33:13.844Z,30.19
2017-07-09T11:34:15.210Z,30.27
2017-07-09T11:35:16.446Z,30.23
2017-07-09T11:36:17.706Z,30.24
2017-07-09T11:37:18.953Z,30.29
2017-07-09T11:38:20.212Z,30.4
2017-07-09T11:39:21.502Z,30.68
2017-07-09T11:40:22.745Z,30.72
2017-07-09T11:41:23.995Z,30.76
2017-07-09T11:42:25.247Z,30.76
2017-07-09T11:43:26.505Z,30.72
2017-07-09T11:44:27.789Z,30.86
2017-07-09T11:45:29.065Z,30.93
2017-07-09T11:46:30.480Z,31.01
2017-07-09T11:47:31.737Z,31.08
2017-07-09T11:48:33.061Z,31.06
2017-07-09T11:49:34.323Z,31.09
2017-07-09T11:50:35.611Z,31.2
2017-07-09T11:51:36.871Z,31.38
2017-07-09T11:52:38.148Z,31.53
2017-07-09T11:53:39.402Z,31.61
2017-07-09T11:54:40.689Z,31.65
2017-07-09T11:55:41.912Z,31.6
2017-07-09T11:56:43.171Z,31.68
2017-07-09T11:57:44.434Z,31.62
2017-07-09T11:58:45.743Z,31.5
2017-07-09T11:59:46.992Z,31.54
2017-07-09T12:00:48.249Z,31.53
2017-07-09T12:01:49.509Z,31.45
2017-07-09T12:02:50.772Z,31.26
2017-07-09T12:03:52.030Z,31.17
2017-07-09T12:04:53.318Z,31.12
2017-07-09T12:05:54.580Z,30.99
2017-07-09T12:06:55.874Z,30.91
2017-07-09T12:07:57.110Z,30.72
2017-07-09T12:08:58.362Z,30.52
2017-07-09T12:09:59.686Z,30.54
2017-07-09T12:11:00.942Z,30.5
2017-07-09T12:12:02.271Z,30.72
2017-07-09T12:13:03.490Z,30.93
2017-07-09T12:14:04.749Z,30.91
2017-07-09T12:15:06.007Z,30.91
2017-07-09T12:16:07.466Z,30.83
2017-07-09T12:17:08.649Z,30.69
2017-07-09T12:18:09.902Z,30.64
2017-07-09T12:19:11.146Z,30.61
2017-07-09T12:20:12.409Z,30.45
2017-07-09T12:21:13.696Z,30.52
2017-07-09T12:22:14.956Z,30.53
2017-07-09T12:23:16.209Z,30.46
2017-07-09T12:24:17.471Z,30.43
2017-07-09T12:25:18.734Z,30.5
2017-07-09T12:26:19.996Z,30.53
2017-07-09T12:27:21.396Z,30.69
2017-07-09T12:28:22.695Z,30.69
2017-07-09T12:29:23.964Z,30.68
2017-07-09T12:30:25.214Z,30.67
2017-07-09T12:31:26.474Z,30.54
2017-07-09T12:32:27.732Z,30.45
2017-07-09T12:33:28.984Z,30.45
2017-07-09T12:34:30.334Z,30.29
2017-07-09T12:35:31.567Z,30.34
2017-07-09T12:36:32.817Z,30.33
2017-07-09T12:37:34.078Z,30.16
2017-07-09T12:38:35.328Z,30.38
2017-07-09T12:39:36.585Z,30.59
2017-07-09T12:40:37.862Z,30.64
2017-07-09T12:41:39.152Z,30.69
2017-07-09T12:42:40.429Z,30.84
2017-07-09T12:43:41.673Z,30.93
2017-07-09T12:44:42.931Z,30.94
2017-07-09T12:45:44.269Z,30.99
2017-07-09T12:46:45.598Z,31.05
2017-07-09T12:47:46.915Z,31.09
2017-07-09T12:48:48.167Z,31.08
2017-07-09T12:49:49.429Z,31.2
2017-07-09T12:50:50.691Z,31.09
2017-07-09T12:51:51.947Z,30.84
2017-07-09T12:52:53.226Z,30.74
2017-07-09T12:53:54.535Z,30.53
2017-07-09T12:54:55.929Z,30.43
2017-07-09T12:55:57.197Z,30.26
2017-07-09T12:56:58.459Z,30.18
2017-07-09T12:57:59.763Z,29.77
2017-07-09T12:59:01.054Z,29.41
2017-07-09T13:00:02.286Z,29.25
2017-07-09T13:01:03.572Z,29.13
2017-07-09T13:02:04.811Z,29.1
2017-07-09T13:03:06.067Z,29.31
2017-07-09T13:04:07.401Z,29.22
2017-07-09T13:05:08.663Z,29.08
2017-07-09T13:06:09.952Z,29.15
2017-07-09T13:07:11.213Z,29.25
2017-07-09T13:08:12.587Z,29.45
2017-07-09T13:09:13.840Z,29.63
2017-07-09T13:10:15.084Z,29.55
2017-07-09T13:11:16.354Z,29.62
2017-07-09T13:12:17.606Z,29.72